sensor_id;sensor_type;location;lat;lon;timestamp;P1;durP1;ratioP1;P2;durP2;ratioP2
39314;SDS011;28703;44.412;11.918;2023-02-28T00:00:40;16.55;;;11.35;;
39314;SDS011;28703;44.412;11.918;2023-02-28T00:03:06;11.90;;;9.10;;
39314;SDS011;28703;44.412;11.918;2023-02-28T00:05:32;11.48;;;8.93;;
39314;SDS011;28703;44.412;11.918;2023-02-28T00:07:58;15.70;;;9.85;;
39314;SDS011;28703;44.412;11.918;2023-02-28T00:10:26;16.25;;;10.60;;
39314;SDS011;28703;44.412;11.918;2023-02-28T00:12:54;21.35;;;11.35;;
39314;SDS011;28703;44.412;11.918;2023-02-28T00:15:22;12.63;;;9.70;;
39314;SDS011;28703;44.412;11.918;2023-02-28T00:17:48;14.45;;;10.00;;
39314;SDS011;28703;44.412;11.918;2023-02-28T00:20:15;17.85;;;9.88;;
39314;SDS011;28703;44.412;11.918;2023-02-28T00:22:42;14.60;;;9.55;;
39314;SDS011;28703;44.412;11.918;2023-02-28T00:25:10;20.20;;;10.32;;
39314;SDS011;28703;44.412;11.918;2023-02-28T00:27:38;16.30;;;11.05;;
39314;SDS011;28703;44.412;11.918;2023-02-28T00:30:05;20.00;;;11.35;;
39314;SDS011;28703;44.412;11.918;2023-02-28T00:32:33;13.15;;;10.60;;
39314;SDS011;28703;44.412;11.918;2023-02-28T00:35:00;25.45;;;11.77;;
39314;SDS011;28703;44.412;11.918;2023-02-28T00:37:26;15.88;;;10.63;;
39314;SDS011;28703;44.412;11.918;2023-02-28T00:39:52;17.38;;;10.60;;
39314;SDS011;28703;44.412;11.918;2023-02-28T00:42:18;19.58;;;10.05;;
39314;SDS011;28703;44.412;11.918;2023-02-28T00:44:46;16.63;;;10.90;;
39314;SDS011;28703;44.412;11.918;2023-02-28T00:47:12;14.45;;;10.35;;
39314;SDS011;28703;44.412;11.918;2023-02-28T00:49:38;17.98;;;12.25;;
39314;SDS011;28703;44.412;11.918;2023-02-28T00:52:04;19.55;;;11.48;;
39314;SDS011;28703;44.412;11.918;2023-02-28T00:54:30;14.88;;;11.23;;
39314;SDS011;28703;44.412;11.918;2023-02-28T00:56:56;14.25;;;10.93;;
39314;SDS011;28703;44.412;11.918;2023-02-28T00:59:21;16.08;;;11.52;;
39314;SDS011;28703;44.412;11.918;2023-02-28T01:01:47;16.38;;;11.80;;
39314;SDS011;28703;44.412;11.918;2023-02-28T01:04:13;17.17;;;10.13;;
39314;SDS011;28703;44.412;11.918;2023-02-28T01:06:40;14.63;;;10.27;;
39314;SDS011;28703;44.412;11.918;2023-02-28T01:09:09;13.48;;;9.55;;
39314;SDS011;28703;44.412;11.918;2023-02-28T01:11:35;18.98;;;11.80;;
39314;SDS011;28703;44.412;11.918;2023-02-28T01:14:02;19.45;;;11.60;;
39314;SDS011;28703;44.412;11.918;2023-02-28T01:16:29;17.50;;;10.48;;
39314;SDS011;28703;44.412;11.918;2023-02-28T01:18:55;16.33;;;11.00;;
39314;SDS011;28703;44.412;11.918;2023-02-28T01:21:21;20.90;;;12.05;;
39314;SDS011;28703;44.412;11.918;2023-02-28T01:23:48;18.05;;;11.23;;
39314;SDS011;28703;44.412;11.918;2023-02-28T01:26:15;20.05;;;10.60;;
39314;SDS011;28703;44.412;11.918;2023-02-28T01:28:46;18.35;;;11.45;;
39314;SDS011;28703;44.412;11.918;2023-02-28T01:31:13;16.85;;;11.50;;
39314;SDS011;28703;44.412;11.918;2023-02-28T01:33:39;18.40;;;12.77;;
39314;SDS011;28703;44.412;11.918;2023-02-28T01:36:13;14.73;;;10.85;;
39314;SDS011;28703;44.412;11.918;2023-02-28T01:38:41;15.77;;;11.00;;
39314;SDS011;28703;44.412;11.918;2023-02-28T01:41:08;14.98;;;11.43;;
39314;SDS011;28703;44.412;11.918;2023-02-28T01:46:08;16.30;;;10.77;;
39314;SDS011;28703;44.412;11.918;2023-02-28T01:48:36;17.83;;;12.35;;
39314;SDS011;28703;44.412;11.918;2023-02-28T01:51:07;14.93;;;12.00;;
39314;SDS011;28703;44.412;11.918;2023-02-28T01:53:37;22.70;;;10.95;;
39314;SDS011;28703;44.412;11.918;2023-02-28T01:56:08;14.43;;;11.15;;
39314;SDS011;28703;44.412;11.918;2023-02-28T01:58:37;19.33;;;11.55;;
39314;SDS011;28703;44.412;11.918;2023-02-28T02:01:03;21.27;;;13.25;;
39314;SDS011;28703;44.412;11.918;2023-02-28T02:03:29;27.65;;;12.10;;
39314;SDS011;28703;44.412;11.918;2023-02-28T02:05:56;17.20;;;12.90;;
39314;SDS011;28703;44.412;11.918;2023-02-28T02:08:26;13.70;;;11.18;;
39314;SDS011;28703;44.412;11.918;2023-02-28T02:10:58;16.13;;;11.85;;
39314;SDS011;28703;44.412;11.918;2023-02-28T02:30:26;15.38;;;11.38;;
39314;SDS011;28703;44.412;11.918;2023-02-28T02:38:58;19.45;;;12.90;;
39314;SDS011;28703;44.412;11.918;2023-02-28T02:46:48;20.98;;;12.85;;
39314;SDS011;28703;44.412;11.918;2023-02-28T02:49:22;15.98;;;11.85;;
39314;SDS011;28703;44.412;11.918;2023-02-28T02:51:54;16.67;;;12.00;;
39314;SDS011;28703;44.412;11.918;2023-02-28T02:54:28;23.05;;;13.20;;
39314;SDS011;28703;44.412;11.918;2023-02-28T02:56:58;16.42;;;12.57;;
39314;SDS011;28703;44.412;11.918;2023-02-28T02:59:28;18.30;;;12.95;;
39314;SDS011;28703;44.412;11.918;2023-02-28T03:01:57;19.52;;;13.80;;
39314;SDS011;28703;44.412;11.918;2023-02-28T03:04:27;20.85;;;13.23;;
39314;SDS011;28703;44.412;11.918;2023-02-28T03:07:00;18.35;;;13.05;;
39314;SDS011;28703;44.412;11.918;2023-02-28T03:09:26;17.35;;;12.57;;
39314;SDS011;28703;44.412;11.918;2023-02-28T03:11:53;22.38;;;12.45;;
39314;SDS011;28703;44.412;11.918;2023-02-28T03:15:04;21.00;;;12.27;;
39314;SDS011;28703;44.412;11.918;2023-02-28T03:28:02;22.27;;;13.65;;
39314;SDS011;28703;44.412;11.918;2023-02-28T03:31:15;15.73;;;12.70;;
39314;SDS011;28703;44.412;11.918;2023-02-28T03:33:54;19.08;;;13.15;;
39314;SDS011;28703;44.412;11.918;2023-02-28T03:36:53;16.05;;;12.90;;
39314;SDS011;28703;44.412;11.918;2023-02-28T03:39:27;20.33;;;12.95;;
39314;SDS011;28703;44.412;11.918;2023-02-28T03:42:00;20.10;;;13.10;;
39314;SDS011;28703;44.412;11.918;2023-02-28T03:44:30;16.25;;;11.98;;
39314;SDS011;28703;44.412;11.918;2023-02-28T03:47:02;22.52;;;12.90;;
39314;SDS011;28703;44.412;11.918;2023-02-28T03:49:40;24.92;;;12.70;;
39314;SDS011;28703;44.412;11.918;2023-02-28T03:52:18;17.70;;;12.68;;
39314;SDS011;28703;44.412;11.918;2023-02-28T03:54:48;19.20;;;13.05;;
39314;SDS011;28703;44.412;11.918;2023-02-28T03:57:28;18.27;;;12.95;;
39314;SDS011;28703;44.412;11.918;2023-02-28T04:00:08;16.95;;;12.27;;
39314;SDS011;28703;44.412;11.918;2023-02-28T04:02:42;19.30;;;12.98;;
39314;SDS011;28703;44.412;11.918;2023-02-28T04:05:08;23.13;;;13.60;;
39314;SDS011;28703;44.412;11.918;2023-02-28T04:07:34;19.40;;;14.20;;
39314;SDS011;28703;44.412;11.918;2023-02-28T04:10:00;18.52;;;13.13;;
39314;SDS011;28703;44.412;11.918;2023-02-28T04:12:26;19.35;;;13.20;;
39314;SDS011;28703;44.412;11.918;2023-02-28T04:14:52;20.25;;;13.38;;
39314;SDS011;28703;44.412;11.918;2023-02-28T04:17:18;17.65;;;12.65;;
39314;SDS011;28703;44.412;11.918;2023-02-28T04:19:44;19.08;;;12.88;;
39314;SDS011;28703;44.412;11.918;2023-02-28T04:22:09;17.38;;;12.95;;
39314;SDS011;28703;44.412;11.918;2023-02-28T04:24:35;18.52;;;12.70;;
39314;SDS011;28703;44.412;11.918;2023-02-28T04:27:02;20.42;;;12.30;;
39314;SDS011;28703;44.412;11.918;2023-02-28T04:29:28;17.35;;;12.55;;
39314;SDS011;28703;44.412;11.918;2023-02-28T04:31:56;19.40;;;12.82;;
39314;SDS011;28703;44.412;11.918;2023-02-28T04:34:23;19.80;;;12.77;;
39314;SDS011;28703;44.412;11.918;2023-02-28T04:36:49;22.48;;;13.52;;
39314;SDS011;28703;44.412;11.918;2023-02-28T04:39:18;20.80;;;12.70;;
39314;SDS011;28703;44.412;11.918;2023-02-28T04:41:45;21.55;;;13.25;;
39314;SDS011;28703;44.412;11.918;2023-02-28T04:44:11;22.02;;;13.90;;
39314;SDS011;28703;44.412;11.918;2023-02-28T04:46:37;17.27;;;13.25;;
39314;SDS011;28703;44.412;11.918;2023-02-28T04:49:03;19.00;;;12.27;;
39314;SDS011;28703;44.412;11.918;2023-02-28T04:51:29;19.42;;;14.07;;
39314;SDS011;28703;44.412;11.918;2023-02-28T04:53:55;21.15;;;14.05;;
39314;SDS011;28703;44.412;11.918;2023-02-28T04:56:21;20.00;;;12.95;;
39314;SDS011;28703;44.412;11.918;2023-02-28T04:58:47;18.30;;;13.15;;
39314;SDS011;28703;44.412;11.918;2023-02-28T05:01:26;21.40;;;12.95;;
39314;SDS011;28703;44.412;11.918;2023-02-28T05:03:55;18.73;;;13.82;;
39314;SDS011;28703;44.412;11.918;2023-02-28T05:06:23;16.88;;;12.90;;
39314;SDS011;28703;44.412;11.918;2023-02-28T05:08:50;22.10;;;14.00;;
39314;SDS011;28703;44.412;11.918;2023-02-28T05:11:17;18.88;;;14.10;;
39314;SDS011;28703;44.412;11.918;2023-02-28T05:13:48;23.10;;;12.98;;
39314;SDS011;28703;44.412;11.918;2023-02-28T05:16:16;18.10;;;13.23;;
39314;SDS011;28703;44.412;11.918;2023-02-28T05:18:42;25.02;;;14.50;;
39314;SDS011;28703;44.412;11.918;2023-02-28T05:21:25;17.95;;;13.77;;
39314;SDS011;28703;44.412;11.918;2023-02-28T05:24:03;23.77;;;14.73;;
39314;SDS011;28703;44.412;11.918;2023-02-28T05:26:31;24.58;;;16.00;;
39314;SDS011;28703;44.412;11.918;2023-02-28T05:29:00;23.63;;;14.93;;
39314;SDS011;28703;44.412;11.918;2023-02-28T05:31:25;29.33;;;15.57;;
39314;SDS011;28703;44.412;11.918;2023-02-28T05:33:51;24.38;;;15.93;;
39314;SDS011;28703;44.412;11.918;2023-02-28T05:36:17;26.25;;;16.08;;
39314;SDS011;28703;44.412;11.918;2023-02-28T05:38:45;24.35;;;14.32;;
39314;SDS011;28703;44.412;11.918;2023-02-28T05:41:14;30.75;;;16.67;;
39314;SDS011;28703;44.412;11.918;2023-02-28T05:43:41;22.15;;;15.40;;
39314;SDS011;28703;44.412;11.918;2023-02-28T05:46:08;24.35;;;15.07;;
39314;SDS011;28703;44.412;11.918;2023-02-28T05:48:45;18.85;;;14.75;;
39314;SDS011;28703;44.412;11.918;2023-02-28T05:51:12;20.27;;;14.75;;
39314;SDS011;28703;44.412;11.918;2023-02-28T05:53:38;22.30;;;14.00;;
39314;SDS011;28703;44.412;11.918;2023-02-28T05:56:04;21.40;;;16.27;;
39314;SDS011;28703;44.412;11.918;2023-02-28T05:58:30;25.48;;;17.08;;
39314;SDS011;28703;44.412;11.918;2023-02-28T06:00:57;29.98;;;15.70;;
39314;SDS011;28703;44.412;11.918;2023-02-28T06:03:43;23.20;;;15.93;;
39314;SDS011;28703;44.412;11.918;2023-02-28T06:06:09;23.27;;;15.35;;
39314;SDS011;28703;44.412;11.918;2023-02-28T06:08:35;21.67;;;14.80;;
39314;SDS011;28703;44.412;11.918;2023-02-28T06:11:04;21.23;;;15.25;;
39314;SDS011;28703;44.412;11.918;2023-02-28T06:13:30;24.23;;;16.17;;
39314;SDS011;28703;44.412;11.918;2023-02-28T06:15:56;23.23;;;15.07;;
39314;SDS011;28703;44.412;11.918;2023-02-28T06:18:25;21.42;;;15.63;;
39314;SDS011;28703;44.412;11.918;2023-02-28T06:20:54;24.52;;;16.33;;
39314;SDS011;28703;44.412;11.918;2023-02-28T06:23:20;33.05;;;17.50;;
39314;SDS011;28703;44.412;11.918;2023-02-28T06:25:47;26.67;;;16.95;;
39314;SDS011;28703;44.412;11.918;2023-02-28T06:28:13;28.58;;;19.10;;
39314;SDS011;28703;44.412;11.918;2023-02-28T06:30:39;32.75;;;18.33;;
39314;SDS011;28703;44.412;11.918;2023-02-28T06:33:04;26.33;;;16.42;;
39314;SDS011;28703;44.412;11.918;2023-02-28T06:35:30;25.52;;;17.83;;
39314;SDS011;28703;44.412;11.918;2023-02-28T06:37:57;23.65;;;15.95;;
39314;SDS011;28703;44.412;11.918;2023-02-28T06:40:23;20.23;;;14.95;;
39314;SDS011;28703;44.412;11.918;2023-02-28T06:42:48;30.13;;;16.25;;
39314;SDS011;28703;44.412;11.918;2023-02-28T06:45:14;22.85;;;17.33;;
39314;SDS011;28703;44.412;11.918;2023-02-28T06:47:40;24.02;;;17.10;;
39314;SDS011;28703;44.412;11.918;2023-02-28T06:50:08;21.85;;;17.77;;
39314;SDS011;28703;44.412;11.918;2023-02-28T06:52:36;23.85;;;16.27;;
39314;SDS011;28703;44.412;11.918;2023-02-28T06:55:05;22.65;;;16.50;;
39314;SDS011;28703;44.412;11.918;2023-02-28T06:57:32;26.13;;;15.80;;
39314;SDS011;28703;44.412;11.918;2023-02-28T06:59:59;26.02;;;15.93;;
39314;SDS011;28703;44.412;11.918;2023-02-28T07:02:26;21.38;;;16.33;;
39314;SDS011;28703;44.412;11.918;2023-02-28T07:04:53;21.15;;;16.25;;
39314;SDS011;28703;44.412;11.918;2023-02-28T07:07:19;27.15;;;16.55;;
39314;SDS011;28703;44.412;11.918;2023-02-28T07:09:44;23.30;;;16.15;;
39314;SDS011;28703;44.412;11.918;2023-02-28T07:12:10;25.63;;;17.45;;
39314;SDS011;28703;44.412;11.918;2023-02-28T07:14:36;21.50;;;15.77;;
39314;SDS011;28703;44.412;11.918;2023-02-28T07:17:02;25.83;;;17.15;;
39314;SDS011;28703;44.412;11.918;2023-02-28T07:19:28;23.75;;;15.80;;
39314;SDS011;28703;44.412;11.918;2023-02-28T07:21:54;21.17;;;14.98;;
39314;SDS011;28703;44.412;11.918;2023-02-28T07:24:20;22.45;;;16.63;;
39314;SDS011;28703;44.412;11.918;2023-02-28T07:26:48;21.65;;;16.20;;
39314;SDS011;28703;44.412;11.918;2023-02-28T07:29:14;21.75;;;16.92;;
39314;SDS011;28703;44.412;11.918;2023-02-28T07:31:40;25.27;;;15.98;;
39314;SDS011;28703;44.412;11.918;2023-02-28T07:34:06;25.50;;;16.88;;
39314;SDS011;28703;44.412;11.918;2023-02-28T07:36:31;23.67;;;15.10;;
39314;SDS011;28703;44.412;11.918;2023-02-28T07:38:57;20.25;;;15.88;;
39314;SDS011;28703;44.412;11.918;2023-02-28T07:41:24;23.83;;;15.68;;
39314;SDS011;28703;44.412;11.918;2023-02-28T07:43:53;27.42;;;15.50;;
39314;SDS011;28703;44.412;11.918;2023-02-28T07:46:20;21.02;;;15.52;;
39314;SDS011;28703;44.412;11.918;2023-02-28T07:48:46;28.25;;;16.42;;
39314;SDS011;28703;44.412;11.918;2023-02-28T07:51:12;24.77;;;16.05;;
39314;SDS011;28703;44.412;11.918;2023-02-28T07:53:38;23.65;;;16.48;;
39314;SDS011;28703;44.412;11.918;2023-02-28T07:56:04;22.10;;;15.52;;
39314;SDS011;28703;44.412;11.918;2023-02-28T07:58:31;23.73;;;16.38;;
39314;SDS011;28703;44.412;11.918;2023-02-28T08:00:57;21.50;;;16.73;;
39314;SDS011;28703;44.412;11.918;2023-02-28T08:03:29;26.30;;;16.75;;
39314;SDS011;28703;44.412;11.918;2023-02-28T08:05:55;29.25;;;17.83;;
39314;SDS011;28703;44.412;11.918;2023-02-28T08:08:21;21.33;;;16.65;;
39314;SDS011;28703;44.412;11.918;2023-02-28T08:10:47;22.98;;;16.67;;
39314;SDS011;28703;44.412;11.918;2023-02-28T08:13:13;20.77;;;16.20;;
39314;SDS011;28703;44.412;11.918;2023-02-28T08:15:40;22.23;;;16.42;;
39314;SDS011;28703;44.412;11.918;2023-02-28T08:18:08;22.90;;;17.33;;
39314;SDS011;28703;44.412;11.918;2023-02-28T08:20:34;21.23;;;16.77;;
39314;SDS011;28703;44.412;11.918;2023-02-28T08:22:59;24.55;;;17.08;;
39314;SDS011;28703;44.412;11.918;2023-02-28T08:25:25;22.83;;;17.33;;
39314;SDS011;28703;44.412;11.918;2023-02-28T08:27:51;23.67;;;17.27;;
39314;SDS011;28703;44.412;11.918;2023-02-28T08:30:17;24.38;;;18.05;;
39314;SDS011;28703;44.412;11.918;2023-02-28T08:32:43;22.95;;;16.77;;
39314;SDS011;28703;44.412;11.918;2023-02-28T08:35:09;22.73;;;16.85;;
39314;SDS011;28703;44.412;11.918;2023-02-28T08:37:35;27.00;;;16.80;;
39314;SDS011;28703;44.412;11.918;2023-02-28T08:40:01;20.98;;;16.42;;
39314;SDS011;28703;44.412;11.918;2023-02-28T08:42:29;27.13;;;17.40;;
39314;SDS011;28703;44.412;11.918;2023-02-28T08:44:55;25.35;;;16.73;;
39314;SDS011;28703;44.412;11.918;2023-02-28T08:47:21;20.10;;;16.52;;
39314;SDS011;28703;44.412;11.918;2023-02-28T08:49:47;22.08;;;17.17;;
39314;SDS011;28703;44.412;11.918;2023-02-28T08:52:13;21.65;;;16.63;;
39314;SDS011;28703;44.412;11.918;2023-02-28T08:54:39;27.85;;;16.30;;
39314;SDS011;28703;44.412;11.918;2023-02-28T08:57:05;26.58;;;17.60;;
39314;SDS011;28703;44.412;11.918;2023-02-28T08:59:31;30.25;;;16.77;;
39314;SDS011;28703;44.412;11.918;2023-02-28T09:01:57;20.52;;;16.02;;
39314;SDS011;28703;44.412;11.918;2023-02-28T09:04:23;21.98;;;16.30;;
39314;SDS011;28703;44.412;11.918;2023-02-28T09:06:49;24.42;;;16.20;;
39314;SDS011;28703;44.412;11.918;2023-02-28T09:09:18;29.70;;;16.40;;
39314;SDS011;28703;44.412;11.918;2023-02-28T09:11:44;26.65;;;17.02;;
39314;SDS011;28703;44.412;11.918;2023-02-28T09:14:09;24.00;;;17.00;;
39314;SDS011;28703;44.412;11.918;2023-02-28T09:16:35;32.67;;;16.60;;
39314;SDS011;28703;44.412;11.918;2023-02-28T09:19:01;23.85;;;16.42;;
39314;SDS011;28703;44.412;11.918;2023-02-28T09:21:27;25.35;;;16.38;;
39314;SDS011;28703;44.412;11.918;2023-02-28T09:23:54;23.80;;;16.27;;
39314;SDS011;28703;44.412;11.918;2023-02-28T09:27:03;24.73;;;15.57;;
39314;SDS011;28703;44.412;11.918;2023-02-28T09:29:35;26.63;;;16.40;;
39314;SDS011;28703;44.412;11.918;2023-02-28T09:32:04;20.55;;;15.23;;
39314;SDS011;28703;44.412;11.918;2023-02-28T09:34:33;25.05;;;15.73;;
39314;SDS011;28703;44.412;11.918;2023-02-28T09:37:05;26.63;;;15.73;;
39314;SDS011;28703;44.412;11.918;2023-02-28T09:39:35;29.48;;;17.63;;
39314;SDS011;28703;44.412;11.918;2023-02-28T09:42:04;21.30;;;14.27;;
39314;SDS011;28703;44.412;11.918;2023-02-28T09:44:40;19.52;;;12.50;;
39314;SDS011;28703;44.412;11.918;2023-02-28T09:49:54;13.95;;;11.98;;
39314;SDS011;28703;44.412;11.918;2023-02-28T09:52:48;13.43;;;11.45;;
39314;SDS011;28703;44.412;11.918;2023-02-28T09:55:20;15.23;;;11.25;;
39314;SDS011;28703;44.412;11.918;2023-02-28T09:57:53;14.98;;;10.98;;
39314;SDS011;28703;44.412;11.918;2023-02-28T10:00:24;16.35;;;10.60;;
39314;SDS011;28703;44.412;11.918;2023-02-28T10:03:03;21.17;;;10.35;;
39314;SDS011;28703;44.412;11.918;2023-02-28T10:05:54;19.75;;;9.52;;
39314;SDS011;28703;44.412;11.918;2023-02-28T10:11:32;19.83;;;9.88;;
39314;SDS011;28703;44.412;11.918;2023-02-28T10:14:18;17.17;;;9.23;;
39314;SDS011;28703;44.412;11.918;2023-02-28T10:20:02;11.65;;;8.48;;
39314;SDS011;28703;44.412;11.918;2023-02-28T10:25:36;14.18;;;9.38;;
39314;SDS011;28703;44.412;11.918;2023-02-28T10:28:10;16.83;;;9.02;;
39314;SDS011;28703;44.412;11.918;2023-02-28T10:30:38;16.08;;;9.82;;
39314;SDS011;28703;44.412;11.918;2023-02-28T10:33:11;15.63;;;9.13;;
39314;SDS011;28703;44.412;11.918;2023-02-28T10:35:47;15.65;;;9.00;;
39314;SDS011;28703;44.412;11.918;2023-02-28T10:38:18;16.15;;;9.02;;
39314;SDS011;28703;44.412;11.918;2023-02-28T10:40:46;14.15;;;8.80;;
39314;SDS011;28703;44.412;11.918;2023-02-28T10:45:38;9.55;;;8.15;;
39314;SDS011;28703;44.412;11.918;2023-02-28T10:56:02;13.80;;;7.70;;
39314;SDS011;28703;44.412;11.918;2023-02-28T11:01:22;10.10;;;8.35;;
39314;SDS011;28703;44.412;11.918;2023-02-28T11:04:00;12.48;;;7.82;;
39314;SDS011;28703;44.412;11.918;2023-02-28T11:06:35;11.32;;;7.43;;
39314;SDS011;28703;44.412;11.918;2023-02-28T11:09:03;13.55;;;7.80;;
39314;SDS011;28703;44.412;11.918;2023-02-28T11:11:41;13.93;;;8.40;;
39314;SDS011;28703;44.412;11.918;2023-02-28T11:14:20;9.95;;;7.93;;
39314;SDS011;28703;44.412;11.918;2023-02-28T11:16:53;16.50;;;8.77;;
39314;SDS011;28703;44.412;11.918;2023-02-28T11:19:34;12.20;;;8.52;;
39314;SDS011;28703;44.412;11.918;2023-02-28T11:22:09;12.80;;;9.50;;
39314;SDS011;28703;44.412;11.918;2023-02-28T11:24:42;11.68;;;8.05;;
39314;SDS011;28703;44.412;11.918;2023-02-28T11:27:40;9.60;;;7.97;;
39314;SDS011;28703;44.412;11.918;2023-02-28T11:30:23;11.45;;;7.82;;
39314;SDS011;28703;44.412;11.918;2023-02-28T11:32:53;8.70;;;7.40;;
39314;SDS011;28703;44.412;11.918;2023-02-28T11:35:31;15.05;;;9.30;;
39314;SDS011;28703;44.412;11.918;2023-02-28T11:38:00;10.55;;;9.02;;
39314;SDS011;28703;44.412;11.918;2023-02-28T11:46:05;12.13;;;7.78;;
39314;SDS011;28703;44.412;11.918;2023-02-28T11:48:54;14.60;;;10.05;;
39314;SDS011;28703;44.412;11.918;2023-02-28T11:51:47;9.05;;;7.78;;
39314;SDS011;28703;44.412;11.918;2023-02-28T11:54:35;10.35;;;7.80;;
39314;SDS011;28703;44.412;11.918;2023-02-28T11:57:16;12.32;;;9.18;;
39314;SDS011;28703;44.412;11.918;2023-02-28T12:03:07;13.18;;;8.85;;
39314;SDS011;28703;44.412;11.918;2023-02-28T12:06:14;14.13;;;9.32;;
39314;SDS011;28703;44.412;11.918;2023-02-28T12:08:56;11.18;;;7.82;;
39314;SDS011;28703;44.412;11.918;2023-02-28T12:11:54;12.55;;;7.55;;
39314;SDS011;28703;44.412;11.918;2023-02-28T12:20:22;12.18;;;8.43;;
39314;SDS011;28703;44.412;11.918;2023-02-28T12:29:00;9.70;;;8.38;;
39314;SDS011;28703;44.412;11.918;2023-02-28T12:34:36;11.52;;;9.48;;
39314;SDS011;28703;44.412;11.918;2023-02-28T12:37:12;15.93;;;12.13;;
39314;SDS011;28703;44.412;11.918;2023-02-28T12:39:48;18.98;;;13.73;;
39314;SDS011;28703;44.412;11.918;2023-02-28T12:42:27;26.77;;;16.50;;
39314;SDS011;28703;44.412;11.918;2023-02-28T12:45:00;26.75;;;18.38;;
39314;SDS011;28703;44.412;11.918;2023-02-28T12:47:34;24.40;;;16.13;;
39314;SDS011;28703;44.412;11.918;2023-02-28T12:50:09;19.90;;;15.38;;
39314;SDS011;28703;44.412;11.918;2023-02-28T12:52:47;23.70;;;15.00;;
39314;SDS011;28703;44.412;11.918;2023-02-28T12:55:46;21.23;;;15.65;;
39314;SDS011;28703;44.412;11.918;2023-02-28T12:58:39;23.00;;;15.30;;
39314;SDS011;28703;44.412;11.918;2023-02-28T13:10:09;24.30;;;14.97;;
39314;SDS011;28703;44.412;11.918;2023-02-28T13:12:38;18.48;;;15.10;;
39314;SDS011;28703;44.412;11.918;2023-02-28T13:17:57;17.33;;;14.27;;
39314;SDS011;28703;44.412;11.918;2023-02-28T13:20:25;17.60;;;13.98;;
39314;SDS011;28703;44.412;11.918;2023-02-28T13:22:59;19.38;;;14.88;;
39314;SDS011;28703;44.412;11.918;2023-02-28T13:28:03;22.75;;;15.30;;
39314;SDS011;28703;44.412;11.918;2023-02-28T13:33:33;24.65;;;15.82;;
39314;SDS011;28703;44.412;11.918;2023-02-28T13:38:45;24.80;;;16.63;;
39314;SDS011;28703;44.412;11.918;2023-02-28T13:41:40;21.65;;;17.20;;
39314;SDS011;28703;44.412;11.918;2023-02-28T13:44:08;28.83;;;18.90;;
39314;SDS011;28703;44.412;11.918;2023-02-28T14:06:46;26.92;;;17.48;;
39314;SDS011;28703;44.412;11.918;2023-02-28T14:09:24;24.02;;;17.95;;
39314;SDS011;28703;44.412;11.918;2023-02-28T14:15:17;28.10;;;18.85;;
39314;SDS011;28703;44.412;11.918;2023-02-28T14:18:02;23.45;;;18.95;;
39314;SDS011;28703;44.412;11.918;2023-02-28T14:20:41;22.75;;;18.40;;
39314;SDS011;28703;44.412;11.918;2023-02-28T14:23:17;25.63;;;17.98;;
39314;SDS011;28703;44.412;11.918;2023-02-28T14:29:06;25.42;;;18.13;;
39314;SDS011;28703;44.412;11.918;2023-02-28T14:31:45;26.25;;;18.02;;
39314;SDS011;28703;44.412;11.918;2023-02-28T14:36:55;27.70;;;18.65;;
39314;SDS011;28703;44.412;11.918;2023-02-28T14:39:35;25.25;;;18.90;;
39314;SDS011;28703;44.412;11.918;2023-02-28T14:42:21;23.58;;;18.80;;
39314;SDS011;28703;44.412;11.918;2023-02-28T14:44:55;23.20;;;18.58;;
39314;SDS011;28703;44.412;11.918;2023-02-28T14:47:22;25.50;;;17.65;;
39314;SDS011;28703;44.412;11.918;2023-02-28T14:49:52;28.25;;;18.40;;
39314;SDS011;28703;44.412;11.918;2023-02-28T14:52:20;28.33;;;18.55;;
39314;SDS011;28703;44.412;11.918;2023-02-28T14:54:59;20.70;;;18.50;;
39314;SDS011;28703;44.412;11.918;2023-02-28T14:57:29;22.63;;;17.98;;
39314;SDS011;28703;44.412;11.918;2023-02-28T15:00:00;27.90;;;19.52;;
39314;SDS011;28703;44.412;11.918;2023-02-28T15:02:29;28.08;;;19.50;;
39314;SDS011;28703;44.412;11.918;2023-02-28T15:04:57;31.63;;;22.75;;
39314;SDS011;28703;44.412;11.918;2023-02-28T15:07:25;28.45;;;20.92;;
39314;SDS011;28703;44.412;11.918;2023-02-28T15:12:49;27.75;;;19.45;;
39314;SDS011;28703;44.412;11.918;2023-02-28T15:15:28;25.83;;;20.70;;
39314;SDS011;28703;44.412;11.918;2023-02-28T15:18:01;37.75;;;27.67;;
39314;SDS011;28703;44.412;11.918;2023-02-28T15:20:29;64.18;;;43.78;;
39314;SDS011;28703;44.412;11.918;2023-02-28T15:22:56;39.30;;;27.05;;
39314;SDS011;28703;44.412;11.918;2023-02-28T15:25:26;29.98;;;22.05;;
39314;SDS011;28703;44.412;11.918;2023-02-28T15:27:53;26.63;;;21.63;;
39314;SDS011;28703;44.412;11.918;2023-02-28T15:30:27;25.35;;;21.00;;
39314;SDS011;28703;44.412;11.918;2023-02-28T15:35:44;34.72;;;20.52;;
39314;SDS011;28703;44.412;11.918;2023-02-28T15:38:22;34.70;;;20.58;;
39314;SDS011;28703;44.412;11.918;2023-02-28T15:40:53;30.67;;;20.95;;
39314;SDS011;28703;44.412;11.918;2023-02-28T15:43:25;29.33;;;20.95;;
39314;SDS011;28703;44.412;11.918;2023-02-28T15:46:28;28.23;;;22.05;;
39314;SDS011;28703;44.412;11.918;2023-02-28T15:51:20;27.83;;;21.98;;
39314;SDS011;28703;44.412;11.918;2023-02-28T15:54:15;29.42;;;22.75;;
39314;SDS011;28703;44.412;11.918;2023-02-28T15:56:50;27.38;;;21.63;;
39314;SDS011;28703;44.412;11.918;2023-02-28T15:59:22;35.95;;;20.38;;
39314;SDS011;28703;44.412;11.918;2023-02-28T16:04:35;25.27;;;19.33;;
39314;SDS011;28703;44.412;11.918;2023-02-28T16:07:03;28.70;;;20.42;;
39314;SDS011;28703;44.412;11.918;2023-02-28T16:09:30;26.58;;;20.50;;
39314;SDS011;28703;44.412;11.918;2023-02-28T16:12:00;28.83;;;19.70;;
39314;SDS011;28703;44.412;11.918;2023-02-28T16:14:30;25.27;;;19.58;;
39314;SDS011;28703;44.412;11.918;2023-02-28T16:16:57;25.42;;;20.15;;
39314;SDS011;28703;44.412;11.918;2023-02-28T16:19:34;31.77;;;23.08;;
39314;SDS011;28703;44.412;11.918;2023-02-28T16:22:00;27.45;;;22.40;;
39314;SDS011;28703;44.412;11.918;2023-02-28T16:24:26;29.80;;;21.05;;
39314;SDS011;28703;44.412;11.918;2023-02-28T16:26:52;27.35;;;21.23;;
39314;SDS011;28703;44.412;11.918;2023-02-28T16:29:27;26.73;;;21.23;;
39314;SDS011;28703;44.412;11.918;2023-02-28T16:31:57;29.27;;;20.65;;
39314;SDS011;28703;44.412;11.918;2023-02-28T16:34:23;33.55;;;21.55;;
39314;SDS011;28703;44.412;11.918;2023-02-28T16:36:50;29.30;;;21.35;;
39314;SDS011;28703;44.412;11.918;2023-02-28T16:39:16;24.45;;;21.05;;
39314;SDS011;28703;44.412;11.918;2023-02-28T16:41:48;27.60;;;20.83;;
39314;SDS011;28703;44.412;11.918;2023-02-28T16:44:31;32.30;;;21.60;;
39314;SDS011;28703;44.412;11.918;2023-02-28T16:46:59;31.13;;;22.77;;
39314;SDS011;28703;44.412;11.918;2023-02-28T16:49:31;33.03;;;24.10;;
39314;SDS011;28703;44.412;11.918;2023-02-28T16:51:57;27.60;;;23.00;;
39314;SDS011;28703;44.412;11.918;2023-02-28T16:54:29;34.15;;;22.65;;
39314;SDS011;28703;44.412;11.918;2023-02-28T16:56:56;31.75;;;22.13;;
39314;SDS011;28703;44.412;11.918;2023-02-28T16:59:28;29.10;;;23.60;;
39314;SDS011;28703;44.412;11.918;2023-02-28T17:01:55;29.52;;;21.85;;